Time;durP1;ratioP1;P1;durP2;ratioP2;P2;SDS_P1;SDS_P2;PMS_P1;PMS_P2;Temp;Humidity;BMP_temperature;BMP_pressure;BME280_temperature;BME280_humidity;BME280_pressure;Samples;Min_cycle;Max_cycle;Signal;HPM_P1;HPM_P2
2021/12/28 00:02:07;;;;;;;10.77;5.68;;;-4.60;90.40;;;;;;5035294;28;20034;-75
2021/12/28 00:04:33;;;;;;;18.70;10.32;;;-4.60;90.30;;;;;;5035142;28;20479;-74
2021/12/28 00:06:59;;;;;;;12.63;6.97;;;-4.60;90.10;;;;;;5034461;28;20371;-74
2021/12/28 00:09:24;;;;;;;15.27;5.88;;;-4.60;90.10;;;;;;5034809;28;20176;-76
2021/12/28 00:11:50;;;;;;;12.30;7.50;;;-4.60;90.10;;;;;;5035398;28;20081;-74
2021/12/28 00:14:16;;;;;;;14.60;7.30;;;-4.60;90.10;;;;;;5034577;28;20044;-74
2021/12/28 00:19:26;;;;;;;8.85;5.32;;;-4.50;90.00;;;;;;5035195;28;20156;-74
2021/12/28 00:21:52;;;;;;;14.38;8.18;;;-4.50;90.00;;;;;;5034754;28;20076;-74
2021/12/28 00:24:17;;;;;;;12.82;6.05;;;-4.50;89.90;;;;;;5033236;28;20440;-75
2021/12/28 00:26:43;;;;;;;9.98;5.13;;;-4.50;90.00;;;;;;5035140;28;20025;-75
2021/12/28 00:29:09;;;;;;;11.15;5.18;;;-4.50;89.90;;;;;;5034610;28;20041;-75
2021/12/28 00:31:35;;;;;;;10.43;5.57;;;-4.50;89.90;;;;;;5034704;28;20032;-74
2021/12/28 00:34:00;;;;;;;9.30;6.32;;;-4.50;89.40;;;;;;5033497;28;20109;-74
2021/12/28 00:36:26;;;;;;;9.75;5.60;;;-4.40;89.40;;;;;;5034631;28;20075;-74
2021/12/28 00:38:52;;;;;;;7.60;4.78;;;-4.50;88.90;;;;;;5034706;28;20030;-75
2021/12/28 00:41:17;;;;;;;11.63;5.00;;;-4.50;88.90;;;;;;5033548;28;20025;-74
2021/12/28 00:43:43;;;;;;;12.23;5.85;;;-4.50;89.30;;;;;;5033367;28;20475;-74
2021/12/28 00:46:09;;;;;;;6.10;4.30;;;-4.40;89.70;;;;;;5033243;28;20075;-74
2021/12/28 00:48:36;;;;;;;8.77;6.05;;;-4.40;89.60;;;;;;5034281;28;20567;-75
2021/12/28 00:51:03;;;;;;;11.40;6.30;;;-4.40;89.30;;;;;;5034168;28;20088;-75
2021/12/28 00:53:29;;;;;;;9.82;6.13;;;-4.30;89.40;;;;;;5033437;28;20034;-75
2021/12/28 00:55:55;;;;;;;13.57;7.03;;;-4.30;89.30;;;;;;5033124;28;20472;-75
2021/12/28 00:58:21;;;;;;;10.85;7.47;;;-4.30;88.90;;;;;;5034402;28;20025;-75
2021/12/28 01:00:47;;;;;;;13.05;7.22;;;-4.30;88.40;;;;;;5034397;28;20022;-74
2021/12/28 01:03:15;;;;;;;15.65;7.78;;;-4.30;88.70;;;;;;5033061;28;20391;-75
2021/12/28 01:05:41;;;;;;;11.90;5.82;;;-4.30;88.50;;;;;;5032496;28;20029;-75
2021/12/28 01:08:08;;;;;;;9.95;5.53;;;-4.30;88.60;;;;;;5034142;28;20079;-75
2021/12/28 01:10:42;;;;;;;9.10;4.95;;;-4.30;88.50;;;;;;5034028;28;20171;-75
2021/12/28 01:13:08;;;;;;;19.27;6.82;;;-4.30;88.30;;;;;;5032968;28;20060;-75
2021/12/28 01:15:34;;;;;;;12.90;6.45;;;-4.30;88.20;;;;;;5032825;28;20030;-75
2021/12/28 01:18:00;;;;;;;16.63;7.03;;;-4.30;88.10;;;;;;5032627;28;20471;-75
2021/12/28 01:20:26;;;;;;;13.60;7.18;;;-4.30;88.40;;;;;;5033951;28;20037;-74
2021/12/28 01:22:52;;;;;;;6.85;4.18;;;-4.30;88.50;;;;;;5032707;28;20063;-76
2021/12/28 01:25:19;;;;;;;7.18;4.10;;;-4.30;88.30;;;;;;5032604;28;20029;-76
2021/12/28 01:27:46;;;;;;;10.88;6.68;;;-4.30;87.80;;;;;;5034344;28;20037;-75
2021/12/28 01:30:14;;;;;;;6.60;4.80;;;-4.30;87.70;;;;;;5032461;28;20075;-74
2021/12/28 01:32:40;;;;;;;10.20;6.07;;;-4.30;87.80;;;;;;5033825;28;20030;-75
2021/12/28 01:35:08;;;;;;;13.07;5.47;;;-4.30;87.80;;;;;;5033561;28;20538;-74
2021/12/28 01:37:35;;;;;;;7.18;4.47;;;-4.30;87.90;;;;;;5032368;28;20029;-76
2021/12/28 01:40:00;;;;;;;10.45;6.18;;;-4.40;88.00;;;;;;5033511;28;20029;-74
2021/12/28 01:42:28;;;;;;;12.38;5.00;;;-4.40;88.10;;;;;;5033537;28;20062;-74
2021/12/28 01:44:54;;;;;;;11.65;7.18;;;-4.40;88.20;;;;;;5032604;28;20383;-75
2021/12/28 01:47:20;;;;;;;11.10;5.05;;;-4.40;88.40;;;;;;5032145;28;20025;-75
2021/12/28 01:49:45;;;;;;;10.45;6.10;;;-4.30;88.40;;;;;;5032871;28;20021;-74
2021/12/28 01:52:12;;;;;;;14.40;5.60;;;-4.40;88.30;;;;;;5033602;28;20025;-74
2021/12/28 01:54:38;;;;;;;12.90;5.25;;;-4.40;88.30;;;;;;5032313;28;20036;-75
2021/12/28 01:57:04;;;;;;;9.88;5.25;;;-4.40;88.20;;;;;;5033748;28;20029;-75
2021/12/28 01:59:30;;;;;;;10.25;6.13;;;-4.40;88.40;;;;;;5033487;28;20403;-75
2021/12/28 02:01:56;;;;;;;11.02;5.97;;;-4.40;88.50;;;;;;5032313;28;20033;-75
2021/12/28 02:04:25;;;;;;;13.93;5.65;;;-4.40;88.40;;;;;;5032693;28;20100;-74
2021/12/28 02:06:51;;;;;;;7.43;4.82;;;-4.40;88.40;;;;;;5033751;28;20018;-75
2021/12/28 02:09:17;;;;;;;11.10;5.15;;;-4.30;88.50;;;;;;5032516;28;20383;-76
2021/12/28 02:11:43;;;;;;;12.40;6.20;;;-4.30;88.40;;;;;;5032104;28;20026;-74
2021/12/28 02:14:10;;;;;;;7.93;4.47;;;-4.40;88.20;;;;;;5032380;28;20392;-74
2021/12/28 02:16:39;;;;;;;8.90;5.22;;;-4.40;88.20;;;;;;5031872;28;20029;-74
2021/12/28 02:19:07;;;;;;;5.85;4.13;;;-4.40;88.40;;;;;;5032062;28;20533;-74
2021/12/28 02:21:33;;;;;;;12.48;5.82;;;-4.30;88.40;;;;;;5032034;28;20026;-74
2021/12/28 02:24:01;;;;;;;7.28;4.43;;;-4.30;88.20;;;;;;5031879;28;20044;-74
2021/12/28 02:26:27;;;;;;;7.20;5.05;;;-4.30;88.20;;;;;;5032024;28;20025;-76
2021/12/28 02:28:53;;;;;;;9.77;4.75;;;-4.30;88.10;;;;;;5033073;28;20112;-74
2021/12/28 02:31:19;;;;;;;10.60;5.03;;;-4.30;88.10;;;;;;5033555;28;20109;-75
2021/12/28 02:33:48;;;;;;;10.95;6.10;;;-4.40;88.10;;;;;;5032059;28;20022;-74
2021/12/28 02:36:15;;;;;;;12.18;7.10;;;-4.30;88.30;;;;;;5033289;28;20112;-75
2021/12/28 02:38:41;;;;;;;13.90;6.75;;;-4.30;88.30;;;;;;5031949;28;20529;-75
2021/12/28 02:41:09;;;;;;;8.07;5.40;;;-4.30;88.10;;;;;;5032266;28;20022;-75
2021/12/28 02:43:35;;;;;;;8.00;4.90;;;-4.20;88.00;;;;;;5031661;28;20022;-75
2021/12/28 02:46:05;;;;;;;11.57;5.10;;;-4.20;87.90;;;;;;5032868;28;20383;-76
2021/12/28 02:48:32;;;;;;;21.42;4.47;;;-4.20;87.60;;;;;;5037652;28;20040;-75
2021/12/28 02:51:02;;;;;;;8.20;4.55;;;-4.20;87.80;;;;;;5037321;28;20061;-76
2021/12/28 02:53:28;;;;;;;5.93;4.72;;;-4.20;87.60;;;;;;5034986;28;20026;-76
2021/12/28 02:55:54;;;;;;;14.25;4.68;;;-4.20;87.30;;;;;;5035307;28;20075;-75
2021/12/28 02:58:31;;;;;;;9.20;5.43;;;-4.20;87.20;;;;;;5035263;28;20117;-75
2021/12/28 03:01:02;;;;;;;6.68;4.55;;;-4.20;87.20;;;;;;5036758;28;20377;-75
2021/12/28 03:03:30;;;;;;;12.15;6.75;;;-4.20;87.10;;;;;;5035621;28;20426;-76
2021/12/28 03:05:57;;;;;;;11.15;5.68;;;-4.10;87.20;;;;;;5035122;28;20037;-75
2021/12/28 03:08:27;;;;;;;10.30;5.45;;;-4.20;86.70;;;;;;5034870;28;20475;-75
2021/12/28 03:10:54;;;;;;;8.27;5.22;;;-4.20;86.80;;;;;;5036213;28;20033;-76
2021/12/28 03:13:24;;;;;;;11.43;5.72;;;-4.20;86.80;;;;;;5034779;28;20102;-75
2021/12/28 03:15:50;;;;;;;12.10;6.72;;;-4.20;86.70;;;;;;5036378;28;20029;-75
2021/12/28 03:18:16;;;;;;;20.10;8.40;;;-4.20;86.50;;;;;;5036233;28;20036;-75
2021/12/28 03:20:42;;;;;;;9.32;5.82;;;-4.20;86.80;;;;;;5034962;28;20025;-75
2021/12/28 03:23:09;;;;;;;8.93;5.03;;;-4.20;86.40;;;;;;5034830;28;20123;-76
2021/12/28 03:25:35;;;;;;;7.90;4.03;;;-4.20;86.30;;;;;;5035203;28;20426;-75
2021/12/28 03:28:01;;;;;;;8.77;5.45;;;-4.10;86.30;;;;;;5034734;28;20120;-77
2021/12/28 03:30:27;;;;;;;9.23;5.13;;;-4.20;86.20;;;;;;5034819;28;20061;-77
2021/12/28 03:32:53;;;;;;;12.95;6.03;;;-4.20;86.30;;;;;;5035047;28;20210;-77
2021/12/28 03:35:19;;;;;;;11.73;5.57;;;-4.10;86.20;;;;;;5034732;28;20128;-76
2021/12/28 03:37:45;;;;;;;10.18;5.32;;;-4.10;86.10;;;;;;5034399;28;20026;-76
2021/12/28 03:40:14;;;;;;;11.32;5.10;;;-4.10;85.90;;;;;;5034376;28;20136;-77
2021/12/28 03:42:40;;;;;;;9.23;5.88;;;-4.10;85.90;;;;;;5035617;28;20033;-76
2021/12/28 03:45:07;;;;;;;14.77;7.20;;;-4.10;85.80;;;;;;5034252;28;20036;-77
2021/12/28 03:47:33;;;;;;;13.85;7.22;;;-4.20;85.50;;;;;;5035348;28;20026;-76
2021/12/28 03:49:59;;;;;;;14.85;6.00;;;-4.20;85.60;;;;;;5035750;28;20033;-77
2021/12/28 03:52:25;;;;;;;9.98;5.22;;;-4.20;85.50;;;;;;5034320;28;20049;-76
2021/12/28 03:54:50;;;;;;;14.15;5.60;;;-4.20;85.70;;;;;;5035309;28;20109;-78
2021/12/28 03:57:16;;;;;;;12.00;5.38;;;-4.20;85.30;;;;;;5035516;28;20478;-77
2021/12/28 03:59:42;;;;;;;7.53;5.25;;;-4.20;85.20;;;;;;5034712;28;20033;-76
2021/12/28 04:02:08;;;;;;;7.93;5.38;;;-4.20;85.00;;;;;;5035751;28;20049;-76
2021/12/28 04:04:34;;;;;;;8.18;5.47;;;-4.20;84.90;;;;;;5034031;28;20072;-78
2021/12/28 04:07:00;;;;;;;9.55;6.25;;;-4.20;85.00;;;;;;5034995;28;20033;-77
2021/12/28 04:10:30;;;;;;;12.02;6.32;;;-4.20;85.00;;;;;;5035579;28;20032;-77
2021/12/28 04:12:22;;;;;;;10.82;5.85;;;-4.20;85.20;;;;;;5038652;28;20041;-77
2021/12/28 04:14:48;;;;;;;10.20;6.75;;;-4.20;84.90;;;;;;5033734;28;20040;-77
2021/12/28 04:17:14;;;;;;;11.65;5.93;;;-4.20;84.50;;;;;;5033781;28;20025;-76
2021/12/28 04:19:39;;;;;;;10.18;5.22;;;-4.20;84.60;;;;;;5035314;28;20049;-77
2021/12/28 04:22:06;;;;;;;13.20;6.47;;;-4.30;84.50;;;;;;5034301;28;20033;-78
2021/12/28 04:24:31;;;;;;;15.65;7.28;;;-4.30;84.20;;;;;;5051518;28;20037;-78
2021/12/28 04:26:57;;;;;;;10.07;6.38;;;-4.30;84.00;;;;;;5033951;28;20028;-77
2021/12/28 04:29:22;;;;;;;14.07;6.03;;;-4.30;84.10;;;;;;5034709;28;20108;-77
2021/12/28 04:31:48;;;;;;;10.88;7.22;;;-4.30;84.10;;;;;;5034757;28;20030;-76
2021/12/28 04:34:14;;;;;;;12.43;6.70;;;-4.30;84.00;;;;;;5033470;28;20099;-77
2021/12/28 04:36:39;;;;;;;10.00;5.68;;;-4.30;83.70;;;;;;5033594;28;20056;-77
2021/12/28 04:39:06;;;;;;;12.40;6.03;;;-4.30;83.70;;;;;;5033334;28;20076;-76
2021/12/28 04:41:32;;;;;;;10.52;5.90;;;-4.40;83.80;;;;;;5034373;28;20512;-77
2021/12/28 04:44:00;;;;;;;10.32;5.57;;;-4.30;83.70;;;;;;5033186;28;20132;-78
2021/12/28 04:46:26;;;;;;;8.00;5.15;;;-4.40;84.10;;;;;;5033023;28;20021;-78
2021/12/28 04:48:52;;;;;;;10.68;5.80;;;-4.40;83.40;;;;;;5033238;28;20415;-78
2021/12/28 04:51:18;;;;;;;11.00;5.65;;;-4.40;83.40;;;;;;5033468;28;20029;-77
2021/12/28 04:53:44;;;;;;;14.05;7.32;;;-4.40;83.20;;;;;;5033306;28;20029;-77
2021/12/28 04:56:10;;;;;;;13.68;6.50;;;-4.40;83.10;;;;;;5035510;28;20024;-75
2021/12/28 04:58:36;;;;;;;11.10;6.53;;;-4.40;83.00;;;;;;5041571;28;20051;-79
2021/12/28 05:01:01;;;;;;;9.85;5.13;;;-4.40;83.00;;;;;;5052597;28;20542;-76
2021/12/28 05:03:27;;;;;;;9.32;5.30;;;-4.30;83.00;;;;;;5046209;28;20080;-75
2021/12/28 05:05:53;;;;;;;10.73;6.55;;;-4.30;83.00;;;;;;5053455;28;20119;-75
2021/12/28 05:08:20;;;;;;;10.63;5.65;;;-4.30;83.10;;;;;;5039683;28;20468;-76
2021/12/28 05:10:47;;;;;;;10.57;6.30;;;-4.30;83.20;;;;;;5031641;28;20033;-75
2021/12/28 05:13:13;;;;;;;32.42;8.30;;;-4.20;83.20;;;;;;5048448;28;20055;-76
2021/12/28 05:15:42;;;;;;;15.50;7.35;;;-4.20;83.10;;;;;;5053085;28;20037;-76
2021/12/28 05:18:08;;;;;;;8.98;6.10;;;-4.20;82.70;;;;;;5053930;28;20104;-75
2021/12/28 05:20:34;;;;;;;13.50;6.88;;;-4.20;82.70;;;;;;5052452;28;20090;-75
2021/12/28 05:23:00;;;;;;;13.65;6.95;;;-4.20;82.80;;;;;;5042852;28;20037;-74
2021/12/28 05:25:26;;;;;;;11.68;5.65;;;-4.20;82.60;;;;;;5032462;28;20040;-76
2021/12/28 05:27:52;;;;;;;12.73;6.85;;;-4.20;82.50;;;;;;5033407;28;20032;-75
2021/12/28 05:30:18;;;;;;;15.27;6.97;;;-4.20;82.40;;;;;;5032469;28;20040;-75
2021/12/28 05:32:44;;;;;;;11.48;6.88;;;-4.20;82.20;;;;;;5034264;28;20033;-76
2021/12/28 05:35:11;;;;;;;12.35;6.43;;;-4.20;82.20;;;;;;5031683;28;20060;-76
2021/12/28 05:37:38;;;;;;;9.93;6.55;;;-4.20;82.20;;;;;;5031282;28;20475;-75
2021/12/28 05:40:06;;;;;;;12.65;5.18;;;-4.20;82.20;;;;;;5033136;28;20366;-75
2021/12/28 05:42:32;;;;;;;9.52;6.28;;;-4.20;82.20;;;;;;5033505;28;20026;-74
2021/12/28 05:44:58;;;;;;;10.65;5.45;;;-4.10;82.30;;;;;;5032040;28;20448;-73
2021/12/28 05:47:24;;;;;;;16.67;7.28;;;-4.10;82.20;;;;;;5031753;28;20486;-76
2021/12/28 05:49:49;;;;;;;12.25;6.43;;;-4.10;82.00;;;;;;5038189;28;20033;-75
2021/12/28 05:52:15;;;;;;;12.25;7.25;;;-4.10;81.90;;;;;;5031825;28;20032;-75
2021/12/28 05:54:41;;;;;;;13.85;7.75;;;-4.10;81.80;;;;;;5045150;28;20526;-76
2021/12/28 05:57:07;;;;;;;11.65;6.30;;;-4.10;81.70;;;;;;5037033;28;20384;-76
2021/12/28 05:59:33;;;;;;;20.05;7.70;;;-4.10;81.60;;;;;;5034562;28;20025;-76
2021/12/28 06:01:59;;;;;;;13.35;7.75;;;-4.10;81.50;;;;;;5032809;28;20032;-76
2021/12/28 06:04:25;;;;;;;9.15;5.63;;;-4.10;81.50;;;;;;5033949;28;20464;-76
2021/12/28 06:06:51;;;;;;;6.70;4.95;;;-4.10;81.60;;;;;;5032819;28;20053;-76
2021/12/28 06:09:17;;;;;;;7.82;5.22;;;-4.10;81.30;;;;;;5042323;28;20547;-79
2021/12/28 06:11:43;;;;;;;9.55;5.63;;;-4.10;81.00;;;;;;5031511;28;20035;-76
2021/12/28 06:14:08;;;;;;;10.85;5.30;;;-4.10;81.20;;;;;;5031568;28;20156;-76
2021/12/28 06:16:34;;;;;;;10.55;5.60;;;-4.10;81.30;;;;;;5031024;28;20033;-76
2021/12/28 06:19:02;;;;;;;12.25;6.45;;;-4.10;81.20;;;;;;5032037;28;20045;-74
2021/12/28 06:21:30;;;;;;;10.57;6.50;;;-4.10;81.10;;;;;;5034379;28;20448;-76
2021/12/28 06:23:57;;;;;;;9.98;6.55;;;-4.10;81.00;;;;;;5034904;28;20029;-74
2021/12/28 06:26:22;;;;;;;12.35;6.47;;;-4.00;80.80;;;;;;5036095;28;20399;-75
2021/12/28 06:28:48;;;;;;;10.50;6.05;;;-4.00;80.40;;;;;;5048533;28;20029;-74
2021/12/28 06:31:14;;;;;;;15.15;6.57;;;-4.10;81.00;;;;;;5035447;28;20033;-75
2021/12/28 06:33:40;;;;;;;7.10;5.10;;;-4.00;80.50;;;;;;5037257;28;20036;-75
2021/12/28 06:36:05;;;;;;;8.63;5.95;;;-4.00;80.30;;;;;;5036711;28;20055;-74
2021/12/28 06:38:31;;;;;;;15.00;7.82;;;-4.00;80.10;;;;;;5038504;28;20069;-78
2021/12/28 06:40:57;;;;;;;25.83;9.48;;;-4.00;80.10;;;;;;5043889;28;20021;-77
2021/12/28 06:43:23;;;;;;;11.57;7.20;;;-4.00;80.10;;;;;;5034659;28;20033;-76
2021/12/28 06:45:50;;;;;;;21.90;8.82;;;-4.00;80.20;;;;;;5042271;28;20403;-76
2021/12/28 06:48:16;;;;;;;18.80;9.40;;;-4.00;80.30;;;;;;5035070;28;20038;-74
2021/12/28 06:50:42;;;;;;;27.15;8.43;;;-4.00;80.10;;;;;;5035526;28;20029;-75
2021/12/28 06:53:08;;;;;;;19.25;10.95;;;-4.00;80.10;;;;;;5034465;28;20571;-75
2021/12/28 06:55:33;;;;;;;23.85;10.10;;;-3.90;80.20;;;;;;5039567;28;20029;-76
2021/12/28 06:57:59;;;;;;;21.88;10.55;;;-3.90;80.00;;;;;;5044876;28;20069;-75
2021/12/28 07:00:25;;;;;;;18.50;10.50;;;-4.00;79.90;;;;;;5047730;28;20055;-74
2021/12/28 07:02:50;;;;;;;19.73;9.05;;;-3.90;80.30;;;;;;5039536;28;20415;-74
2021/12/28 07:05:16;;;;;;;28.30;12.02;;;-3.90;80.00;;;;;;5044220;28;20080;-75
2021/12/28 07:07:42;;;;;;;22.90;10.65;;;-3.90;79.80;;;;;;5039275;28;20398;-78
2021/12/28 07:10:09;;;;;;;24.80;10.70;;;-3.90;79.50;;;;;;5036761;28;20207;-72
2021/12/28 07:12:35;;;;;;;16.50;10.15;;;-3.90;79.20;;;;;;5053477;28;20053;-71
2021/12/28 07:15:01;;;;;;;14.85;6.40;;;-3.90;79.40;;;;;;5038786;28;20117;-74
2021/12/28 07:17:27;;;;;;;12.45;7.80;;;-3.90;79.10;;;;;;5043828;28;20032;-74
2021/12/28 07:19:55;;;;;;;19.45;9.75;;;-3.90;79.20;;;;;;5037732;28;20022;-76
2021/12/28 07:22:21;;;;;;;16.77;7.35;;;-3.90;79.00;;;;;;5035797;28;20028;-73
2021/12/28 07:24:47;;;;;;;15.80;7.38;;;-3.90;78.80;;;;;;5052915;28;20032;-75
2021/12/28 07:27:13;;;;;;;16.88;7.47;;;-3.90;78.90;;;;;;5037860;28;20388;-77
2021/12/28 07:29:38;;;;;;;11.48;6.97;;;-3.90;78.70;;;;;;5034343;28;20392;-77
2021/12/28 07:32:08;;;;;;;11.50;6.25;;;-3.90;78.50;;;;;;5035247;28;20023;-72
2021/12/28 07:34:34;;;;;;;13.45;10.55;;;-3.90;78.40;;;;;;5033519;28;20021;-74
2021/12/28 07:37:00;;;;;;;21.15;11.07;;;-3.90;78.70;;;;;;5041382;28;20115;-74
2021/12/28 07:39:26;;;;;;;33.30;12.25;;;-3.90;79.10;;;;;;5039964;28;20029;-73
2021/12/28 07:41:52;;;;;;;17.20;8.77;;;-3.80;79.00;;;;;;5050305;28;20040;-75
2021/12/28 07:44:17;;;;;;;8.30;4.88;;;-3.80;78.90;;;;;;5052572;28;20040;-72
2021/12/28 07:46:43;;;;;;;12.70;6.22;;;-3.80;78.70;;;;;;5050162;28;20033;-72
2021/12/28 07:49:09;;;;;;;11.77;7.50;;;-3.80;78.70;;;;;;5044985;28;20032;-76
2021/12/28 07:51:34;;;;;;;21.25;9.65;;;-3.80;78.30;;;;;;5043064;28;20029;-72
2021/12/28 07:54:00;;;;;;;23.73;10.00;;;-3.80;78.80;;;;;;5039561;28;20104;-74
2021/12/28 07:56:26;;;;;;;22.30;12.40;;;-3.80;78.90;;;;;;5038908;28;20033;-76
2021/12/28 07:58:52;;;;;;;23.02;10.23;;;-3.80;78.50;;;;;;5039591;28;20071;-74
2021/12/28 08:01:18;;;;;;;15.40;11.27;;;-3.80;78.60;;;;;;5042617;28;20100;-73
2021/12/28 08:03:43;;;;;;;17.55;9.60;;;-3.70;78.90;;;;;;5050394;28;20057;-75
2021/12/28 08:06:09;;;;;;;14.25;8.15;;;-3.70;79.00;;;;;;5043724;28;20041;-71
2021/12/28 08:08:35;;;;;;;12.68;8.40;;;-3.60;78.80;;;;;;5039176;28;20067;-75
2021/12/28 08:11:01;;;;;;;17.15;8.45;;;-3.60;78.30;;;;;;5048841;28;20033;-72
2021/12/28 08:13:27;;;;;;;17.25;10.27;;;-3.60;78.10;;;;;;5053784;28;20045;-73
2021/12/28 08:15:55;;;;;;;11.27;6.68;;;-3.50;78.40;;;;;;5045112;28;20040;-71
2021/12/28 08:18:21;;;;;;;26.15;9.85;;;-3.50;77.80;;;;;;5046633;28;20459;-73
2021/12/28 08:20:47;;;;;;;23.45;12.13;;;-3.60;76.60;;;;;;5043384;28;20029;-73
2021/12/28 08:23:13;;;;;;;23.88;12.27;;;-3.60;76.80;;;;;;5037782;28;20034;-74
2021/12/28 08:25:39;;;;;;;16.05;8.90;;;-3.60;77.00;;;;;;5043282;28;20049;-71
2021/12/28 08:28:06;;;;;;;20.65;10.15;;;-3.50;77.20;;;;;;5040605;28;20036;-75
2021/12/28 08:30:35;;;;;;;24.52;12.85;;;-3.50;76.70;;;;;;5037643;28;20040;-72
2021/12/28 08:33:02;;;;;;;32.45;12.07;;;-3.50;76.60;;;;;;5034219;28;20022;-72
2021/12/28 08:35:27;;;;;;;20.25;8.60;;;-3.50;76.50;;;;;;5033296;28;20033;-72
2021/12/28 08:37:53;;;;;;;21.73;9.00;;;-3.50;75.70;;;;;;5042725;28;20050;-71
2021/12/28 08:40:20;;;;;;;17.23;7.65;;;-3.60;75.30;;;;;;5039173;28;20030;-71
2021/12/28 08:42:46;;;;;;;22.30;11.23;;;-3.60;75.10;;;;;;5037189;28;20554;-72
2021/12/28 08:45:13;;;;;;;21.20;8.82;;;-3.60;75.20;;;;;;5041289;28;20041;-73
2021/12/28 08:47:38;;;;;;;13.20;9.38;;;-3.50;75.40;;;;;;5033118;28;20029;-71
2021/12/28 08:50:08;;;;;;;15.85;7.88;;;-3.50;75.20;;;;;;5034470;28;20029;-72
2021/12/28 08:52:35;;;;;;;14.60;7.50;;;-3.50;74.80;;;;;;5034168;28;20369;-72
2021/12/28 08:55:00;;;;;;;23.10;9.05;;;-3.60;74.80;;;;;;5040382;28;20057;-72
2021/12/28 08:57:26;;;;;;;13.95;7.22;;;-3.60;75.20;;;;;;5043558;28;20036;-73
2021/12/28 08:59:52;;;;;;;15.73;10.25;;;-3.60;75.50;;;;;;5040874;28;20044;-73
2021/12/28 09:02:17;;;;;;;19.02;10.30;;;-3.60;75.80;;;;;;5049638;28;20021;-77
2021/12/28 09:04:43;;;;;;;12.07;7.20;;;-3.60;75.90;;;;;;5049476;28;20381;-76
2021/12/28 09:07:18;;;;;;;21.52;8.80;;;-3.60;76.40;;;;;;5044114;28;20029;-74
2021/12/28 09:09:45;;;;;;;25.00;7.13;;;-3.60;76.80;;;;;;5043642;28;20029;-74
2021/12/28 09:12:11;;;;;;;12.25;7.72;;;-3.60;77.10;;;;;;5046441;28;20440;-77
2021/12/28 09:14:38;;;;;;;14.48;7.13;;;-3.70;77.20;;;;;;5039370;28;20174;-76
2021/12/28 09:17:04;;;;;;;17.15;8.95;;;-3.70;77.60;;;;;;5049196;28;20165;-78
2021/12/28 09:19:31;;;;;;;30.15;6.15;;;-3.70;77.90;;;;;;5039564;28;20033;-73
2021/12/28 09:21:58;;;;;;;15.77;6.75;;;-3.70;78.20;;;;;;5038215;28;20028;-75
2021/12/28 09:24:23;;;;;;;14.52;8.20;;;-3.80;78.50;;;;;;5042085;28;20145;-75
2021/12/28 09:26:49;;;;;;;14.02;8.40;;;-3.80;78.80;;;;;;5034322;28;20112;-73
2021/12/28 09:29:15;;;;;;;8.45;5.95;;;-3.80;79.40;;;;;;5034136;28;20103;-75
2021/12/28 09:31:41;;;;;;;13.18;6.72;;;-3.80;79.90;;;;;;5048151;28;20029;-73
2021/12/28 09:34:06;;;;;;;6.18;4.10;;;-3.80;80.10;;;;;;5041151;28;20107;-72
2021/12/28 09:36:32;;;;;;;16.88;7.22;;;-3.70;80.30;;;;;;5033805;28;20087;-73
2021/12/28 09:38:58;;;;;;;7.78;4.97;;;-3.70;80.30;;;;;;5038275;28;20030;-75
2021/12/28 09:41:23;;;;;;;15.55;6.60;;;-3.70;80.70;;;;;;5038391;28;20079;-72
2021/12/28 09:43:49;;;;;;;16.48;8.15;;;-3.70;80.70;;;;;;5041471;28;20025;-73
2021/12/28 09:46:15;;;;;;;10.63;6.93;;;-3.70;80.90;;;;;;5046996;28;20033;-73
2021/12/28 09:48:41;;;;;;;9.82;6.10;;;-3.70;81.00;;;;;;5041118;28;20121;-73
2021/12/28 09:51:07;;;;;;;18.70;7.85;;;-3.70;81.10;;;;;;5041050;28;20025;-71
2021/12/28 09:53:33;;;;;;;9.20;5.50;;;-3.70;81.30;;;;;;5046469;28;20029;-73
2021/12/28 09:55:58;;;;;;;9.07;4.30;;;-3.70;82.00;;;;;;5036920;28;20160;-70
2021/12/28 09:58:24;;;;;;;10.35;5.30;;;-3.70;81.30;;;;;;5046105;28;20049;-72
2021/12/28 10:00:50;;;;;;;5.38;4.80;;;-3.70;81.60;;;;;;5047634;28;20494;-72
2021/12/28 10:03:16;;;;;;;13.95;4.95;;;-3.70;81.60;;;;;;5044509;28;20383;-73
2021/12/28 10:05:42;;;;;;;11.57;6.85;;;-3.80;81.90;;;;;;5044057;28;20033;-73
2021/12/28 10:08:08;;;;;;;15.05;7.07;;;-3.80;81.90;;;;;;5039138;28;20026;-71
2021/12/28 10:10:39;;;;;;;10.93;7.25;;;-3.80;82.20;;;;;;5055535;28;20415;-73
2021/12/28 10:13:16;;;;;;;17.23;8.18;;;-3.80;82.40;;;;;;5039271;28;20452;-74
2021/12/28 10:15:44;;;;;;;5.50;4.65;;;-3.80;82.40;;;;;;5045148;28;20445;-73
2021/12/28 10:18:11;;;;;;;14.25;7.75;;;-3.80;82.60;;;;;;5053372;28;20024;-74
2021/12/28 10:20:48;;;;;;;9.57;5.60;;;-3.80;82.80;;;;;;5056409;28;20025;-72
2021/12/28 10:23:19;;;;;;;15.10;5.93;;;-3.90;83.10;;;;;;5049095;28;20030;-73
2021/12/28 10:25:47;;;;;;;11.20;5.97;;;-3.90;83.10;;;;;;5043281;28;20045;-69
2021/12/28 10:28:32;;;;;;;15.27;7.57;;;-3.90;83.20;;;;;;5046001;28;20480;-70
2021/12/28 10:31:22;;;;;;;8.57;5.28;;;-3.90;83.50;;;;;;5036355;28;20531;-72
2021/12/28 10:33:55;;;;;;;10.07;5.90;;;-3.90;83.60;;;;;;5043388;28;20502;-72
2021/12/28 10:36:20;;;;;;;12.32;6.32;;;-3.90;83.60;;;;;;5037846;28;20028;-71
2021/12/28 10:38:49;;;;;;;11.75;7.07;;;-3.90;83.90;;;;;;5051518;28;20029;-73
2021/12/28 10:41:20;;;;;;;7.18;4.80;;;-3.90;83.90;;;;;;5055069;28;20036;-73
2021/12/28 10:43:51;;;;;;;14.00;7.15;;;-3.90;84.40;;;;;;5040721;28;20032;-71
2021/12/28 10:46:23;;;;;;;23.50;9.75;;;-3.90;84.60;;;;;;5050044;28;20543;-73
2021/12/28 10:48:56;;;;;;;25.70;9.52;;;-3.80;84.70;;;;;;5039354;28;20120;-77
2021/12/28 10:51:27;;;;;;;14.85;7.03;;;-3.80;84.70;;;;;;5047722;28;20060;-74
2021/12/28 10:54:12;;;;;;;18.80;9.27;;;-3.80;84.60;;;;;;5038981;28;20461;-73
2021/12/28 10:56:52;;;;;;;14.30;6.90;;;-3.90;84.70;;;;;;5043051;28;20505;-75
2021/12/28 10:59:23;;;;;;;12.38;6.93;;;-3.90;85.20;;;;;;5050893;28;20055;-71
2021/12/28 11:01:50;;;;;;;6.85;4.65;;;-3.80;85.70;;;;;;5040182;28;20038;-72
2021/12/28 11:04:16;;;;;;;16.10;6.57;;;-3.80;85.70;;;;;;5041022;28;20040;-74
2021/12/28 11:06:51;;;;;;;9.63;5.35;;;-3.80;85.60;;;;;;5046221;28;20545;-71
2021/12/28 11:09:19;;;;;;;9.70;5.68;;;-3.80;85.80;;;;;;5045042;28;20029;-73
2021/12/28 11:11:46;;;;;;;9.05;4.70;;;-3.80;85.60;;;;;;5045888;28;20036;-73
2021/12/28 11:14:16;;;;;;;9.40;6.25;;;-3.80;85.70;;;;;;5043366;28;20041;-74
2021/12/28 11:17:04;;;;;;;9.90;6.50;;;-3.80;85.70;;;;;;5045514;28;20064;-74
2021/12/28 11:19:35;;;;;;;15.65;7.20;;;-3.80;85.90;;;;;;5040504;28;20048;-75
2021/12/28 11:22:07;;;;;;;12.93;5.90;;;-3.80;86.10;;;;;;5042049;28;20087;-74
2021/12/28 11:24:39;;;;;;;13.57;5.50;;;-3.80;86.10;;;;;;5044047;28;20033;-73
2021/12/28 11:27:07;;;;;;;14.65;7.07;;;-3.80;86.20;;;;;;5041709;28;20038;-73
2021/12/28 11:29:36;;;;;;;13.50;5.93;;;-3.80;86.50;;;;;;5042430;28;20025;-73
2021/12/28 11:32:06;;;;;;;11.70;5.63;;;-3.80;86.40;;;;;;5049514;28;20029;-74
2021/12/28 11:34:34;;;;;;;15.40;8.35;;;-3.80;86.20;;;;;;5039722;28;20029;-75
2021/12/28 11:37:07;;;;;;;11.32;5.90;;;-3.80;86.30;;;;;;5042077;28;20112;-73
2021/12/28 11:39:35;;;;;;;11.95;5.65;;;-3.90;86.20;;;;;;5039530;28;20036;-71
2021/12/28 11:42:03;;;;;;;9.95;4.75;;;-3.90;86.30;;;;;;5040999;28;20033;-72
2021/12/28 11:44:34;;;;;;;12.05;6.72;;;-3.90;86.70;;;;;;5048760;28;20024;-73
2021/12/28 11:47:02;;;;;;;10.70;5.45;;;-3.90;86.60;;;;;;5039042;28;20033;-75
2021/12/28 11:49:29;;;;;;;16.10;5.82;;;-4.00;86.60;;;;;;5045270;28;20523;-75
2021/12/28 11:52:00;;;;;;;10.02;5.30;;;-4.00;86.70;;;;;;5042993;28;20063;-74
2021/12/28 11:54:30;;;;;;;11.23;5.65;;;-4.00;86.90;;;;;;5045539;28;20025;-72
2021/12/28 11:57:04;;;;;;;9.50;5.38;;;-4.00;87.00;;;;;;5041305;28;20022;-76
2021/12/28 11:59:30;;;;;;;15.35;7.15;;;-4.00;86.90;;;;;;5034542;28;20052;-75
2021/12/28 12:02:02;;;;;;;20.25;7.82;;;-4.00;86.70;;;;;;5040930;28;20029;-75
2021/12/28 12:04:31;;;;;;;12.50;6.78;;;-4.10;86.90;;;;;;5041860;28;20036;-71
2021/12/28 12:07:00;;;;;;;11.30;5.70;;;-4.10;87.10;;;;;;5039684;28;20041;-72
2021/12/28 12:09:26;;;;;;;9.60;5.93;;;-4.10;87.10;;;;;;5045696;28;20029;-74
2021/12/28 12:12:11;;;;;;;11.23;6.25;;;-4.10;87.40;;;;;;5043202;28;20438;-72
2021/12/28 12:14:57;;;;;;;10.40;6.20;;;-4.00;87.80;;;;;;5048045;28;20037;-72
2021/12/28 12:17:31;;;;;;;12.10;5.80;;;-4.00;87.80;;;;;;5048191;28;20063;-69
2021/12/28 12:19:57;;;;;;;11.65;5.60;;;-4.00;87.60;;;;;;5045338;28;20082;-72
2021/12/28 12:22:38;;;;;;;14.35;6.35;;;-4.00;87.60;;;;;;5052378;28;20471;-73
2021/12/28 12:25:03;;;;;;;10.18;6.30;;;-4.00;87.70;;;;;;5043251;28;20108;-71
2021/12/28 12:27:45;;;;;;;11.80;6.05;;;-4.00;87.70;;;;;;5039310;28;20108;-72
2021/12/28 12:30:17;;;;;;;8.25;4.97;;;-4.00;87.70;;;;;;5043197;28;20033;-71
2021/12/28 12:33:05;;;;;;;11.20;5.85;;;-4.00;88.00;;;;;;5042813;28;20029;-74
2021/12/28 12:35:36;;;;;;;11.52;6.53;;;-4.00;87.60;;;;;;5046967;28;20112;-71
2021/12/28 12:38:23;;;;;;;10.70;5.50;;;-4.10;87.70;;;;;;5042279;28;20472;-74
2021/12/28 12:41:16;;;;;;;5.47;4.60;;;-4.10;88.10;;;;;;5046017;28;20040;-71
2021/12/28 12:43:44;;;;;;;13.18;6.50;;;-4.10;87.90;;;;;;5043292;28;20467;-73